Terminal Aerodrome Forecast
Issued by NWS Charleston, WV

Current Version | Previous Version | Graphics & Text | Print | Product List | Glossary On
Versions: 1 2 3 4 5 6 7 8 9 10 11 12 13 14 15 16 17 18 19 20 21 22 23 24 25
729
FTUS41 KRLX 130903 AAA
TAFEKN
TAF AMD
KEKN 130903Z 1309/1406 29010G24KT P6SM FEW030 FEW035
     FM131100 30012G20KT 3SM -SHSN BKN030
     FM131400 30012G20KT P6SM -SHSN BKN040=

USA.gov is the U.S. government's official web portal to all federal, state and local government web resources and services.